sensor_id;sensor_type;location;lat;lon;timestamp;P1;durP1;ratioP1;P2;durP2;ratioP2
75496;SDS011;64074;47.540;19.072;2023-04-03T00:02:51;9.97;;;4.90;;
75496;SDS011;64074;47.540;19.072;2023-04-03T00:05:55;8.90;;;5.30;;
75496;SDS011;64074;47.540;19.072;2023-04-03T00:08:58;8.50;;;5.18;;
75496;SDS011;64074;47.540;19.072;2023-04-03T00:12:01;7.88;;;4.72;;
75496;SDS011;64074;47.540;19.072;2023-04-03T00:15:05;8.73;;;5.00;;
75496;SDS011;64074;47.540;19.072;2023-04-03T00:18:09;8.33;;;4.90;;
75496;SDS011;64074;47.540;19.072;2023-04-03T00:21:12;8.30;;;4.97;;
75496;SDS011;64074;47.540;19.072;2023-04-03T00:24:15;7.88;;;4.55;;
75496;SDS011;64074;47.540;19.072;2023-04-03T00:27:19;7.65;;;4.65;;
75496;SDS011;64074;47.540;19.072;2023-04-03T00:30:21;7.38;;;4.57;;
75496;SDS011;64074;47.540;19.072;2023-04-03T00:33:25;6.67;;;4.13;;
75496;SDS011;64074;47.540;19.072;2023-04-03T00:36:28;7.03;;;4.50;;
75496;SDS011;64074;47.540;19.072;2023-04-03T00:39:31;8.52;;;4.53;;
75496;SDS011;64074;47.540;19.072;2023-04-03T00:42:34;7.32;;;3.95;;
75496;SDS011;64074;47.540;19.072;2023-04-03T00:45:39;7.82;;;4.43;;
75496;SDS011;64074;47.540;19.072;2023-04-03T00:48:44;6.03;;;3.83;;
75496;SDS011;64074;47.540;19.072;2023-04-03T00:51:49;6.78;;;4.13;;
75496;SDS011;64074;47.540;19.072;2023-04-03T00:54:54;7.15;;;4.20;;
75496;SDS011;64074;47.540;19.072;2023-04-03T00:58:00;7.25;;;4.35;;
75496;SDS011;64074;47.540;19.072;2023-04-03T01:01:05;6.63;;;4.05;;
75496;SDS011;64074;47.540;19.072;2023-04-03T01:04:32;7.20;;;3.80;;
75496;SDS011;64074;47.540;19.072;2023-04-03T01:07:38;8.45;;;4.07;;
75496;SDS011;64074;47.540;19.072;2023-04-03T01:10:42;6.85;;;3.80;;
75496;SDS011;64074;47.540;19.072;2023-04-03T01:13:46;7.78;;;3.67;;
75496;SDS011;64074;47.540;19.072;2023-04-03T01:16:55;6.65;;;3.90;;
75496;SDS011;64074;47.540;19.072;2023-04-03T01:23:53;5.70;;;3.88;;
75496;SDS011;64074;47.540;19.072;2023-04-03T01:27:09;7.55;;;3.95;;
75496;SDS011;64074;47.540;19.072;2023-04-03T01:30:14;6.78;;;3.75;;
75496;SDS011;64074;47.540;19.072;2023-04-03T01:33:20;6.28;;;3.50;;
75496;SDS011;64074;47.540;19.072;2023-04-03T01:36:25;5.50;;;3.50;;
75496;SDS011;64074;47.540;19.072;2023-04-03T01:39:31;5.63;;;3.25;;
75496;SDS011;64074;47.540;19.072;2023-04-03T01:42:35;5.75;;;3.17;;
75496;SDS011;64074;47.540;19.072;2023-04-03T01:45:39;5.82;;;3.33;;
75496;SDS011;64074;47.540;19.072;2023-04-03T01:48:43;7.38;;;3.13;;
75496;SDS011;64074;47.540;19.072;2023-04-03T01:51:47;5.30;;;2.80;;
75496;SDS011;64074;47.540;19.072;2023-04-03T01:54:50;5.40;;;3.10;;
75496;SDS011;64074;47.540;19.072;2023-04-03T01:57:53;6.18;;;3.17;;
75496;SDS011;64074;47.540;19.072;2023-04-03T02:00:56;6.43;;;3.10;;
75496;SDS011;64074;47.540;19.072;2023-04-03T02:04:00;4.88;;;2.75;;
75496;SDS011;64074;47.540;19.072;2023-04-03T02:07:03;4.80;;;3.00;;
75496;SDS011;64074;47.540;19.072;2023-04-03T02:10:07;5.47;;;3.10;;
75496;SDS011;64074;47.540;19.072;2023-04-03T02:13:10;5.43;;;3.10;;
75496;SDS011;64074;47.540;19.072;2023-04-03T02:16:14;4.60;;;2.80;;
75496;SDS011;64074;47.540;19.072;2023-04-03T02:19:16;4.90;;;2.97;;
75496;SDS011;64074;47.540;19.072;2023-04-03T02:22:19;5.80;;;2.83;;
75496;SDS011;64074;47.540;19.072;2023-04-03T02:25:22;5.22;;;2.83;;
75496;SDS011;64074;47.540;19.072;2023-04-03T02:28:25;4.57;;;2.70;;
75496;SDS011;64074;47.540;19.072;2023-04-03T02:31:29;5.10;;;3.00;;
75496;SDS011;64074;47.540;19.072;2023-04-03T02:34:34;4.03;;;2.20;;
75496;SDS011;64074;47.540;19.072;2023-04-03T02:37:38;3.83;;;2.40;;
75496;SDS011;64074;47.540;19.072;2023-04-03T02:40:42;5.38;;;3.03;;
75496;SDS011;64074;47.540;19.072;2023-04-03T02:43:45;4.55;;;2.60;;
75496;SDS011;64074;47.540;19.072;2023-04-03T02:46:48;4.63;;;2.72;;
75496;SDS011;64074;47.540;19.072;2023-04-03T02:49:51;4.60;;;2.85;;
75496;SDS011;64074;47.540;19.072;2023-04-03T02:52:55;4.43;;;2.67;;
75496;SDS011;64074;47.540;19.072;2023-04-03T02:55:59;4.43;;;2.42;;
75496;SDS011;64074;47.540;19.072;2023-04-03T02:59:02;5.68;;;2.88;;
75496;SDS011;64074;47.540;19.072;2023-04-03T03:02:09;4.40;;;2.40;;
75496;SDS011;64074;47.540;19.072;2023-04-03T03:05:13;5.95;;;3.30;;
75496;SDS011;64074;47.540;19.072;2023-04-03T03:08:15;4.93;;;2.57;;
75496;SDS011;64074;47.540;19.072;2023-04-03T03:11:22;4.53;;;2.92;;
75496;SDS011;64074;47.540;19.072;2023-04-03T03:14:25;6.47;;;3.25;;
75496;SDS011;64074;47.540;19.072;2023-04-03T03:17:29;5.57;;;3.20;;
75496;SDS011;64074;47.540;19.072;2023-04-03T03:20:33;5.97;;;3.38;;
75496;SDS011;64074;47.540;19.072;2023-04-03T03:23:37;3.97;;;2.87;;
75496;SDS011;64074;47.540;19.072;2023-04-03T03:26:40;6.10;;;2.80;;
75496;SDS011;64074;47.540;19.072;2023-04-03T03:29:44;5.53;;;3.00;;
75496;SDS011;64074;47.540;19.072;2023-04-03T03:32:49;5.88;;;3.20;;
75496;SDS011;64074;47.540;19.072;2023-04-03T03:35:53;5.03;;;2.85;;
75496;SDS011;64074;47.540;19.072;2023-04-03T03:38:56;6.23;;;3.20;;
75496;SDS011;64074;47.540;19.072;2023-04-03T03:41:59;5.65;;;2.97;;
75496;SDS011;64074;47.540;19.072;2023-04-03T03:45:03;5.90;;;3.67;;
75496;SDS011;64074;47.540;19.072;2023-04-03T03:48:08;5.45;;;2.53;;
75496;SDS011;64074;47.540;19.072;2023-04-03T03:51:11;6.03;;;3.67;;
75496;SDS011;64074;47.540;19.072;2023-04-03T03:54:15;5.33;;;3.20;;
75496;SDS011;64074;47.540;19.072;2023-04-03T03:57:18;5.60;;;3.50;;
75496;SDS011;64074;47.540;19.072;2023-04-03T04:00:21;6.88;;;3.90;;
75496;SDS011;64074;47.540;19.072;2023-04-03T04:03:29;7.07;;;4.00;;
75496;SDS011;64074;47.540;19.072;2023-04-03T04:06:32;6.55;;;3.38;;
75496;SDS011;64074;47.540;19.072;2023-04-03T04:09:39;6.13;;;3.27;;
75496;SDS011;64074;47.540;19.072;2023-04-03T04:12:43;6.43;;;3.45;;
75496;SDS011;64074;47.540;19.072;2023-04-03T04:15:46;6.68;;;3.60;;
75496;SDS011;64074;47.540;19.072;2023-04-03T04:18:51;7.57;;;3.72;;
75496;SDS011;64074;47.540;19.072;2023-04-03T04:21:54;7.35;;;3.83;;
75496;SDS011;64074;47.540;19.072;2023-04-03T04:24:58;5.87;;;3.30;;
75496;SDS011;64074;47.540;19.072;2023-04-03T04:28:00;7.57;;;3.78;;
75496;SDS011;64074;47.540;19.072;2023-04-03T04:31:03;6.13;;;3.35;;
75496;SDS011;64074;47.540;19.072;2023-04-03T04:34:07;5.72;;;3.45;;
75496;SDS011;64074;47.540;19.072;2023-04-03T04:37:12;7.38;;;4.03;;
75496;SDS011;64074;47.540;19.072;2023-04-03T04:40:15;7.93;;;3.97;;
75496;SDS011;64074;47.540;19.072;2023-04-03T04:43:19;7.22;;;3.92;;
75496;SDS011;64074;47.540;19.072;2023-04-03T04:46:25;6.80;;;3.78;;
75496;SDS011;64074;47.540;19.072;2023-04-03T04:49:31;9.00;;;3.83;;
75496;SDS011;64074;47.540;19.072;2023-04-03T04:52:35;7.80;;;4.25;;
75496;SDS011;64074;47.540;19.072;2023-04-03T04:55:46;7.97;;;4.27;;
75496;SDS011;64074;47.540;19.072;2023-04-03T04:59:04;8.73;;;4.45;;
75496;SDS011;64074;47.540;19.072;2023-04-03T05:02:09;7.53;;;3.90;;
75496;SDS011;64074;47.540;19.072;2023-04-03T05:05:23;8.18;;;4.18;;
75496;SDS011;64074;47.540;19.072;2023-04-03T05:08:27;10.43;;;4.47;;
75496;SDS011;64074;47.540;19.072;2023-04-03T05:11:30;7.20;;;3.90;;
75496;SDS011;64074;47.540;19.072;2023-04-03T05:14:34;9.43;;;4.40;;
75496;SDS011;64074;47.540;19.072;2023-04-03T05:17:41;7.80;;;4.15;;
75496;SDS011;64074;47.540;19.072;2023-04-03T05:20:48;6.35;;;3.78;;
75496;SDS011;64074;47.540;19.072;2023-04-03T05:23:54;8.00;;;4.13;;
75496;SDS011;64074;47.540;19.072;2023-04-03T05:26:57;8.23;;;4.43;;
75496;SDS011;64074;47.540;19.072;2023-04-03T05:30:01;8.45;;;4.07;;
75496;SDS011;64074;47.540;19.072;2023-04-03T05:33:06;7.53;;;4.30;;
75496;SDS011;64074;47.540;19.072;2023-04-03T05:36:21;6.00;;;3.63;;
75496;SDS011;64074;47.540;19.072;2023-04-03T05:39:50;6.70;;;3.42;;
75496;SDS011;64074;47.540;19.072;2023-04-03T05:42:56;8.02;;;4.25;;
75496;SDS011;64074;47.540;19.072;2023-04-03T05:46:02;7.95;;;4.60;;
75496;SDS011;64074;47.540;19.072;2023-04-03T05:49:06;7.33;;;4.40;;
75496;SDS011;64074;47.540;19.072;2023-04-03T05:52:21;9.13;;;4.37;;
75496;SDS011;64074;47.540;19.072;2023-04-03T05:55:31;9.20;;;4.45;;
75496;SDS011;64074;47.540;19.072;2023-04-03T05:58:34;8.25;;;4.47;;
75496;SDS011;64074;47.540;19.072;2023-04-03T06:01:38;9.00;;;4.32;;
75496;SDS011;64074;47.540;19.072;2023-04-03T06:04:41;9.87;;;4.30;;
75496;SDS011;64074;47.540;19.072;2023-04-03T06:07:48;8.20;;;4.00;;
75496;SDS011;64074;47.540;19.072;2023-04-03T06:10:52;8.65;;;4.40;;
75496;SDS011;64074;47.540;19.072;2023-04-03T06:13:56;7.90;;;4.30;;
75496;SDS011;64074;47.540;19.072;2023-04-03T06:17:00;6.60;;;4.10;;
75496;SDS011;64074;47.540;19.072;2023-04-03T06:20:04;5.43;;;3.50;;
75496;SDS011;64074;47.540;19.072;2023-04-03T06:23:11;6.63;;;3.60;;
75496;SDS011;64074;47.540;19.072;2023-04-03T06:26:14;7.45;;;4.13;;
75496;SDS011;64074;47.540;19.072;2023-04-03T06:29:19;9.27;;;3.75;;
75496;SDS011;64074;47.540;19.072;2023-04-03T06:32:24;7.55;;;3.92;;
75496;SDS011;64074;47.540;19.072;2023-04-03T06:35:27;7.13;;;3.93;;
75496;SDS011;64074;47.540;19.072;2023-04-03T06:38:33;7.57;;;3.80;;
75496;SDS011;64074;47.540;19.072;2023-04-03T06:41:37;7.03;;;3.60;;
75496;SDS011;64074;47.540;19.072;2023-04-03T06:44:41;9.55;;;3.30;;
75496;SDS011;64074;47.540;19.072;2023-04-03T06:47:46;4.78;;;2.80;;
75496;SDS011;64074;47.540;19.072;2023-04-03T06:52:01;3.97;;;2.43;;
75496;SDS011;64074;47.540;19.072;2023-04-03T06:56:03;3.27;;;2.00;;
75496;SDS011;64074;47.540;19.072;2023-04-03T06:59:10;4.22;;;2.13;;
75496;SDS011;64074;47.540;19.072;2023-04-03T07:02:16;5.35;;;2.58;;
75496;SDS011;64074;47.540;19.072;2023-04-03T07:05:21;3.55;;;1.90;;
75496;SDS011;64074;47.540;19.072;2023-04-03T07:08:26;3.10;;;1.80;;
75496;SDS011;64074;47.540;19.072;2023-04-03T07:11:29;3.80;;;2.00;;
75496;SDS011;64074;47.540;19.072;2023-04-03T07:14:34;4.15;;;2.03;;
75496;SDS011;64074;47.540;19.072;2023-04-03T07:17:39;3.95;;;2.20;;
75496;SDS011;64074;47.540;19.072;2023-04-03T07:20:43;3.25;;;1.90;;
75496;SDS011;64074;47.540;19.072;2023-04-03T07:23:48;2.63;;;1.60;;
75496;SDS011;64074;47.540;19.072;2023-04-03T07:26:52;3.77;;;1.53;;
75496;SDS011;64074;47.540;19.072;2023-04-03T07:29:57;2.72;;;1.40;;
75496;SDS011;64074;47.540;19.072;2023-04-03T07:33:01;2.17;;;1.42;;
75496;SDS011;64074;47.540;19.072;2023-04-03T07:36:07;2.80;;;1.65;;
75496;SDS011;64074;47.540;19.072;2023-04-03T07:39:11;2.10;;;1.50;;
75496;SDS011;64074;47.540;19.072;2023-04-03T07:42:17;2.53;;;1.30;;
75496;SDS011;64074;47.540;19.072;2023-04-03T07:45:54;2.65;;;1.58;;
75496;SDS011;64074;47.540;19.072;2023-04-03T07:49:53;4.20;;;1.85;;
75496;SDS011;64074;47.540;19.072;2023-04-03T07:53:26;2.88;;;1.67;;
75496;SDS011;64074;47.540;19.072;2023-04-03T07:56:29;2.60;;;1.60;;
75496;SDS011;64074;47.540;19.072;2023-04-03T07:59:33;3.13;;;1.20;;
75496;SDS011;64074;47.540;19.072;2023-04-03T08:02:37;2.03;;;1.42;;
75496;SDS011;64074;47.540;19.072;2023-04-03T08:05:41;2.95;;;1.70;;
75496;SDS011;64074;47.540;19.072;2023-04-03T08:08:47;6.32;;;1.65;;
75496;SDS011;64074;47.540;19.072;2023-04-03T08:11:50;3.03;;;1.60;;
75496;SDS011;64074;47.540;19.072;2023-04-03T08:14:55;3.87;;;1.60;;
75496;SDS011;64074;47.540;19.072;2023-04-03T08:18:00;3.15;;;1.55;;
75496;SDS011;64074;47.540;19.072;2023-04-03T08:21:07;3.85;;;1.45;;
75496;SDS011;64074;47.540;19.072;2023-04-03T08:24:16;3.60;;;1.60;;
75496;SDS011;64074;47.540;19.072;2023-04-03T08:27:20;2.83;;;1.70;;
75496;SDS011;64074;47.540;19.072;2023-04-03T08:30:23;3.40;;;1.60;;
75496;SDS011;64074;47.540;19.072;2023-04-03T08:33:26;2.42;;;1.63;;
75496;SDS011;64074;47.540;19.072;2023-04-03T08:36:30;2.20;;;1.40;;
75496;SDS011;64074;47.540;19.072;2023-04-03T08:39:42;3.22;;;1.30;;
75496;SDS011;64074;47.540;19.072;2023-04-03T08:53:27;2.20;;;1.40;;
75496;SDS011;64074;47.540;19.072;2023-04-03T08:57:51;2.83;;;1.20;;
75496;SDS011;64074;47.540;19.072;2023-04-03T09:01:36;2.67;;;1.40;;
75496;SDS011;64074;47.540;19.072;2023-04-03T09:04:45;4.03;;;1.50;;
75496;SDS011;64074;47.540;19.072;2023-04-03T09:07:52;1.57;;;1.10;;
75496;SDS011;64074;47.540;19.072;2023-04-03T09:21:04;2.03;;;1.23;;
75496;SDS011;64074;47.540;19.072;2023-04-03T09:24:21;2.83;;;1.80;;
75496;SDS011;64074;47.540;19.072;2023-04-03T09:42:31;1.80;;;1.00;;
75496;SDS011;64074;47.540;19.072;2023-04-03T09:51:26;2.40;;;1.58;;
75496;SDS011;64074;47.540;19.072;2023-04-03T09:54:32;1.60;;;1.30;;
75496;SDS011;64074;47.540;19.072;2023-04-03T09:57:46;3.67;;;1.80;;
75496;SDS011;64074;47.540;19.072;2023-04-03T10:00:55;4.13;;;1.27;;
75496;SDS011;64074;47.540;19.072;2023-04-03T10:04:17;4.00;;;2.00;;
75496;SDS011;64074;47.540;19.072;2023-04-03T10:07:30;4.88;;;1.45;;
75496;SDS011;64074;47.540;19.072;2023-04-03T10:10:43;1.70;;;1.10;;
75496;SDS011;64074;47.540;19.072;2023-04-03T10:14:10;1.40;;;1.00;;
75496;SDS011;64074;47.540;19.072;2023-04-03T10:19:34;1.13;;;0.70;;
75496;SDS011;64074;47.540;19.072;2023-04-03T10:22:45;1.10;;;0.70;;
75496;SDS011;64074;47.540;19.072;2023-04-03T10:26:17;1.90;;;0.90;;
75496;SDS011;64074;47.540;19.072;2023-04-03T10:34:23;1.10;;;0.80;;
75496;SDS011;64074;47.540;19.072;2023-04-03T10:37:47;1.50;;;0.90;;
75496;SDS011;64074;47.540;19.072;2023-04-03T11:36:44;0.95;;;0.60;;
75496;SDS011;64074;47.540;19.072;2023-04-03T11:39:56;0.80;;;0.60;;
75496;SDS011;64074;47.540;19.072;2023-04-03T11:43:07;2.10;;;1.15;;
75496;SDS011;64074;47.540;19.072;2023-04-03T11:47:08;5.63;;;0.80;;
75496;SDS011;64074;47.540;19.072;2023-04-03T11:58:42;1.45;;;0.85;;
75496;SDS011;64074;47.540;19.072;2023-04-03T12:13:12;1.40;;;0.90;;
75496;SDS011;64074;47.540;19.072;2023-04-03T12:17:50;2.50;;;1.42;;
75496;SDS011;64074;47.540;19.072;2023-04-03T12:21:01;1.40;;;0.80;;
75496;SDS011;64074;47.540;19.072;2023-04-03T12:27:27;3.30;;;0.83;;
75496;SDS011;64074;47.540;19.072;2023-04-03T12:31:00;1.47;;;0.70;;
75496;SDS011;64074;47.540;19.072;2023-04-03T12:34:11;1.85;;;0.95;;
75496;SDS011;64074;47.540;19.072;2023-04-03T12:41:30;1.90;;;1.20;;
75496;SDS011;64074;47.540;19.072;2023-04-03T12:50:30;4.07;;;1.00;;
75496;SDS011;64074;47.540;19.072;2023-04-03T12:54:13;1.67;;;1.10;;
75496;SDS011;64074;47.540;19.072;2023-04-03T12:58:27;2.17;;;0.98;;
75496;SDS011;64074;47.540;19.072;2023-04-03T13:02:14;1.35;;;0.70;;
75496;SDS011;64074;47.540;19.072;2023-04-03T13:05:27;1.00;;;0.57;;
75496;SDS011;64074;47.540;19.072;2023-04-03T13:09:21;1.33;;;0.93;;
75496;SDS011;64074;47.540;19.072;2023-04-03T13:13:08;2.78;;;1.50;;
75496;SDS011;64074;47.540;19.072;2023-04-03T13:16:15;1.10;;;1.00;;
75496;SDS011;64074;47.540;19.072;2023-04-03T13:19:26;1.20;;;0.88;;
75496;SDS011;64074;47.540;19.072;2023-04-03T13:26:11;1.30;;;0.80;;
75496;SDS011;64074;47.540;19.072;2023-04-03T13:40:46;0.90;;;0.73;;
75496;SDS011;64074;47.540;19.072;2023-04-03T13:47:26;1.38;;;0.90;;
75496;SDS011;64074;47.540;19.072;2023-04-03T13:54:34;1.88;;;1.30;;
75496;SDS011;64074;47.540;19.072;2023-04-03T13:58:22;1.20;;;0.97;;
75496;SDS011;64074;47.540;19.072;2023-04-03T14:12:00;1.35;;;0.70;;
75496;SDS011;64074;47.540;19.072;2023-04-03T14:15:39;3.38;;;1.15;;
75496;SDS011;64074;47.540;19.072;2023-04-03T14:19:28;1.53;;;0.73;;
75496;SDS011;64074;47.540;19.072;2023-04-03T14:23:05;0.97;;;0.60;;
75496;SDS011;64074;47.540;19.072;2023-04-03T14:26:43;1.10;;;0.70;;
75496;SDS011;64074;47.540;19.072;2023-04-03T14:30:29;4.43;;;0.80;;
75496;SDS011;64074;47.540;19.072;2023-04-03T14:33:56;2.17;;;1.30;;
75496;SDS011;64074;47.540;19.072;2023-04-03T14:37:27;5.03;;;1.17;;
75496;SDS011;64074;47.540;19.072;2023-04-03T14:40:43;1.70;;;1.23;;
75496;SDS011;64074;47.540;19.072;2023-04-03T14:44:36;4.60;;;0.95;;
75496;SDS011;64074;47.540;19.072;2023-04-03T14:48:18;1.52;;;1.00;;
75496;SDS011;64074;47.540;19.072;2023-04-03T14:51:27;1.35;;;0.90;;
75496;SDS011;64074;47.540;19.072;2023-04-03T14:54:39;1.97;;;1.10;;
75496;SDS011;64074;47.540;19.072;2023-04-03T14:58:12;2.37;;;1.10;;
75496;SDS011;64074;47.540;19.072;2023-04-03T15:01:32;1.48;;;0.80;;
75496;SDS011;64074;47.540;19.072;2023-04-03T15:05:07;2.40;;;1.00;;
75496;SDS011;64074;47.540;19.072;2023-04-03T15:08:38;2.05;;;0.85;;
75496;SDS011;64074;47.540;19.072;2023-04-03T15:12:08;1.33;;;0.87;;
75496;SDS011;64074;47.540;19.072;2023-04-03T15:15:14;3.00;;;1.20;;
75496;SDS011;64074;47.540;19.072;2023-04-03T15:18:25;2.13;;;1.73;;
75496;SDS011;64074;47.540;19.072;2023-04-03T15:21:32;5.35;;;1.40;;
75496;SDS011;64074;47.540;19.072;2023-04-03T15:24:42;3.30;;;1.70;;
75496;SDS011;64074;47.540;19.072;2023-04-03T15:28:23;4.20;;;2.10;;
75496;SDS011;64074;47.540;19.072;2023-04-03T15:31:36;4.20;;;2.10;;
75496;SDS011;64074;47.540;19.072;2023-04-03T15:34:53;4.13;;;2.10;;
75496;SDS011;64074;47.540;19.072;2023-04-03T15:38:04;3.72;;;1.98;;
75496;SDS011;64074;47.540;19.072;2023-04-03T15:41:35;4.53;;;2.05;;
75496;SDS011;64074;47.540;19.072;2023-04-03T15:44:45;3.13;;;1.90;;
75496;SDS011;64074;47.540;19.072;2023-04-03T15:48:24;4.43;;;1.50;;
75496;SDS011;64074;47.540;19.072;2023-04-03T15:52:02;4.43;;;1.63;;
75496;SDS011;64074;47.540;19.072;2023-04-03T15:55:32;3.78;;;1.80;;
75496;SDS011;64074;47.540;19.072;2023-04-03T15:58:57;4.45;;;1.75;;
75496;SDS011;64074;47.540;19.072;2023-04-03T16:02:07;3.83;;;2.00;;
75496;SDS011;64074;47.540;19.072;2023-04-03T16:05:38;4.90;;;1.93;;
75496;SDS011;64074;47.540;19.072;2023-04-03T16:09:09;2.70;;;1.63;;
75496;SDS011;64074;47.540;19.072;2023-04-03T16:12:20;4.65;;;1.33;;
75496;SDS011;64074;47.540;19.072;2023-04-03T16:15:55;3.25;;;1.30;;
75496;SDS011;64074;47.540;19.072;2023-04-03T16:19:25;2.60;;;1.13;;
75496;SDS011;64074;47.540;19.072;2023-04-03T16:23:04;4.53;;;1.60;;
75496;SDS011;64074;47.540;19.072;2023-04-03T16:26:18;2.05;;;1.13;;
75496;SDS011;64074;47.540;19.072;2023-04-03T16:29:47;2.97;;;1.55;;
75496;SDS011;64074;47.540;19.072;2023-04-03T16:32:56;3.42;;;1.50;;
75496;SDS011;64074;47.540;19.072;2023-04-03T16:36:31;4.13;;;1.40;;
75496;SDS011;64074;47.540;19.072;2023-04-03T16:39:41;2.60;;;1.70;;
75496;SDS011;64074;47.540;19.072;2023-04-03T16:43:18;3.38;;;1.10;;
75496;SDS011;64074;47.540;19.072;2023-04-03T16:46:46;3.92;;;1.40;;
75496;SDS011;64074;47.540;19.072;2023-04-03T16:49:56;3.53;;;1.52;;
75496;SDS011;64074;47.540;19.072;2023-04-03T16:53:27;3.47;;;1.80;;
75496;SDS011;64074;47.540;19.072;2023-04-03T16:56:55;4.03;;;2.00;;
75496;SDS011;64074;47.540;19.072;2023-04-03T17:00:29;3.35;;;1.55;;
75496;SDS011;64074;47.540;19.072;2023-04-03T17:03:39;3.13;;;1.80;;
75496;SDS011;64074;47.540;19.072;2023-04-03T17:07:10;4.13;;;1.50;;
75496;SDS011;64074;47.540;19.072;2023-04-03T17:10:20;2.17;;;1.10;;
75496;SDS011;64074;47.540;19.072;2023-04-03T17:13:40;2.60;;;1.37;;
75496;SDS011;64074;47.540;19.072;2023-04-03T17:17:02;1.60;;;1.02;;
75496;SDS011;64074;47.540;19.072;2023-04-03T17:20:12;2.47;;;1.10;;
75496;SDS011;64074;47.540;19.072;2023-04-03T17:23:42;2.97;;;1.50;;
75496;SDS011;64074;47.540;19.072;2023-04-03T17:27:14;2.90;;;1.60;;
75496;SDS011;64074;47.540;19.072;2023-04-03T17:30:19;7.07;;;1.80;;
75496;SDS011;64074;47.540;19.072;2023-04-03T17:33:28;2.72;;;1.60;;
75496;SDS011;64074;47.540;19.072;2023-04-03T17:37:01;2.47;;;1.40;;
75496;SDS011;64074;47.540;19.072;2023-04-03T17:40:31;2.90;;;1.60;;
75496;SDS011;64074;47.540;19.072;2023-04-03T17:43:40;3.30;;;1.40;;
75496;SDS011;64074;47.540;19.072;2023-04-03T17:46:49;2.73;;;1.57;;
75496;SDS011;64074;47.540;19.072;2023-04-03T17:50:10;3.20;;;1.70;;
75496;SDS011;64074;47.540;19.072;2023-04-03T17:53:24;3.92;;;1.50;;
75496;SDS011;64074;47.540;19.072;2023-04-03T17:56:55;3.03;;;1.27;;
75496;SDS011;64074;47.540;19.072;2023-04-03T18:00:24;2.80;;;1.50;;
75496;SDS011;64074;47.540;19.072;2023-04-03T18:03:33;3.10;;;1.40;;
75496;SDS011;64074;47.540;19.072;2023-04-03T18:06:45;2.72;;;1.40;;
75496;SDS011;64074;47.540;19.072;2023-04-03T18:09:58;3.80;;;1.60;;
75496;SDS011;64074;47.540;19.072;2023-04-03T18:13:21;3.67;;;1.55;;
75496;SDS011;64074;47.540;19.072;2023-04-03T18:16:24;4.20;;;1.33;;
75496;SDS011;64074;47.540;19.072;2023-04-03T18:19:33;3.03;;;1.73;;
75496;SDS011;64074;47.540;19.072;2023-04-03T18:22:39;2.40;;;1.35;;
75496;SDS011;64074;47.540;19.072;2023-04-03T18:25:47;3.50;;;1.50;;
75496;SDS011;64074;47.540;19.072;2023-04-03T18:28:52;3.13;;;1.40;;
75496;SDS011;64074;47.540;19.072;2023-04-03T18:32:04;3.90;;;1.80;;
75496;SDS011;64074;47.540;19.072;2023-04-03T18:35:29;4.10;;;1.70;;
75496;SDS011;64074;47.540;19.072;2023-04-03T18:39:06;2.88;;;1.58;;
75496;SDS011;64074;47.540;19.072;2023-04-03T18:42:31;2.72;;;1.60;;
75496;SDS011;64074;47.540;19.072;2023-04-03T18:45:41;2.70;;;1.60;;
75496;SDS011;64074;47.540;19.072;2023-04-03T18:49:18;2.10;;;1.40;;
75496;SDS011;64074;47.540;19.072;2023-04-03T18:52:37;3.60;;;1.80;;
75496;SDS011;64074;47.540;19.072;2023-04-03T18:56:14;3.72;;;1.45;;
75496;SDS011;64074;47.540;19.072;2023-04-03T18:59:51;3.22;;;1.48;;
75496;SDS011;64074;47.540;19.072;2023-04-03T19:03:08;2.90;;;1.70;;
75496;SDS011;64074;47.540;19.072;2023-04-03T19:06:18;3.20;;;1.70;;
75496;SDS011;64074;47.540;19.072;2023-04-03T19:09:48;3.33;;;1.43;;
75496;SDS011;64074;47.540;19.072;2023-04-03T19:12:58;3.45;;;1.60;;
75496;SDS011;64074;47.540;19.072;2023-04-03T19:16:22;2.65;;;1.42;;
75496;SDS011;64074;47.540;19.072;2023-04-03T19:19:25;5.05;;;1.70;;
75496;SDS011;64074;47.540;19.072;2023-04-03T19:22:34;2.37;;;1.40;;
75496;SDS011;64074;47.540;19.072;2023-04-03T19:26:12;2.50;;;1.30;;
75496;SDS011;64074;47.540;19.072;2023-04-03T19:29:42;2.78;;;1.60;;
75496;SDS011;64074;47.540;19.072;2023-04-03T19:32:52;2.47;;;1.30;;
75496;SDS011;64074;47.540;19.072;2023-04-03T19:36:10;2.88;;;1.30;;
75496;SDS011;64074;47.540;19.072;2023-04-03T19:39:36;3.80;;;1.60;;
75496;SDS011;64074;47.540;19.072;2023-04-03T19:42:47;4.73;;;1.60;;
75496;SDS011;64074;47.540;19.072;2023-04-03T19:46:24;2.35;;;1.40;;
75496;SDS011;64074;47.540;19.072;2023-04-03T19:49:37;4.15;;;1.92;;
75496;SDS011;64074;47.540;19.072;2023-04-03T19:53:11;3.08;;;1.48;;
75496;SDS011;64074;47.540;19.072;2023-04-03T19:56:51;2.40;;;1.47;;
75496;SDS011;64074;47.540;19.072;2023-04-03T20:00:09;3.93;;;1.87;;
75496;SDS011;64074;47.540;19.072;2023-04-03T20:03:21;3.83;;;1.67;;
75496;SDS011;64074;47.540;19.072;2023-04-03T20:06:57;3.55;;;1.75;;
75496;SDS011;64074;47.540;19.072;2023-04-03T20:10:27;4.43;;;1.90;;
75496;SDS011;64074;47.540;19.072;2023-04-03T20:13:30;3.87;;;1.90;;
75496;SDS011;64074;47.540;19.072;2023-04-03T20:16:41;3.93;;;1.90;;
75496;SDS011;64074;47.540;19.072;2023-04-03T20:20:18;3.53;;;1.63;;
75496;SDS011;64074;47.540;19.072;2023-04-03T20:23:48;3.60;;;1.80;;
75496;SDS011;64074;47.540;19.072;2023-04-03T20:27:24;3.40;;;1.92;;
75496;SDS011;64074;47.540;19.072;2023-04-03T20:30:56;3.97;;;1.80;;
75496;SDS011;64074;47.540;19.072;2023-04-03T20:34:00;3.60;;;1.80;;
75496;SDS011;64074;47.540;19.072;2023-04-03T20:37:13;3.28;;;1.90;;
75496;SDS011;64074;47.540;19.072;2023-04-03T20:44:46;3.88;;;1.70;;
75496;SDS011;64074;47.540;19.072;2023-04-03T20:48:17;2.73;;;1.70;;
75496;SDS011;64074;47.540;19.072;2023-04-03T20:51:47;3.50;;;1.73;;
75496;SDS011;64074;47.540;19.072;2023-04-03T20:55:17;3.45;;;1.48;;
75496;SDS011;64074;47.540;19.072;2023-04-03T20:58:27;2.92;;;1.40;;
75496;SDS011;64074;47.540;19.072;2023-04-03T21:01:38;4.30;;;1.70;;
75496;SDS011;64074;47.540;19.072;2023-04-03T21:04:57;3.17;;;1.47;;
75496;SDS011;64074;47.540;19.072;2023-04-03T21:19:18;3.95;;;1.50;;
75496;SDS011;64074;47.540;19.072;2023-04-03T21:22:28;4.40;;;1.90;;
75496;SDS011;64074;47.540;19.072;2023-04-03T21:25:39;3.93;;;1.53;;
75496;SDS011;64074;47.540;19.072;2023-04-03T21:29:15;3.58;;;1.80;;
75496;SDS011;64074;47.540;19.072;2023-04-03T21:32:42;4.35;;;2.05;;
75496;SDS011;64074;47.540;19.072;2023-04-03T21:36:17;3.53;;;1.83;;
75496;SDS011;64074;47.540;19.072;2023-04-03T21:39:33;3.10;;;1.70;;
75496;SDS011;64074;47.540;19.072;2023-04-03T21:42:54;3.57;;;1.70;;
75496;SDS011;64074;47.540;19.072;2023-04-03T21:46:30;3.33;;;1.75;;
75496;SDS011;64074;47.540;19.072;2023-04-03T21:49:40;3.63;;;1.70;;
75496;SDS011;64074;47.540;19.072;2023-04-03T21:52:55;5.47;;;1.73;;
75496;SDS011;64074;47.540;19.072;2023-04-03T21:56:26;2.80;;;1.50;;
75496;SDS011;64074;47.540;19.072;2023-04-03T21:59:36;3.73;;;1.80;;
75496;SDS011;64074;47.540;19.072;2023-04-03T22:02:59;3.03;;;1.45;;
75496;SDS011;64074;47.540;19.072;2023-04-03T22:06:32;6.43;;;1.60;;
75496;SDS011;64074;47.540;19.072;2023-04-03T22:10:03;3.28;;;1.52;;
75496;SDS011;64074;47.540;19.072;2023-04-03T22:13:32;4.20;;;1.60;;
75496;SDS011;64074;47.540;19.072;2023-04-03T22:17:02;3.43;;;1.50;;
75496;SDS011;64074;47.540;19.072;2023-04-03T22:20:11;3.35;;;1.58;;
75496;SDS011;64074;47.540;19.072;2023-04-03T22:23:22;2.50;;;1.70;;
75496;SDS011;64074;47.540;19.072;2023-04-03T22:26:54;3.90;;;1.70;;